How2Pass Free Practice Test Questions

1. How2Pass CCNA 200-301 Free Test: Recent 50 Records
Name Ques Attempted Ques Correct Score Time Taken (s) Time
Guest1601277436 12 0 0 5 2020-09-28 03:17:38
Guest1601264511 12 10 83.33 118 2020-09-27 23:55:46
Guest1601264511 1 0 0 599 2020-09-27 23:52:21
Guest1601251263 1 1 100 1091 2020-09-27 20:20:32
Guest1601216688 12 5 41.67 175 2020-09-27 10:27:56
Guest1601124536 12 12 100 544 2020-09-26 08:59:14
Guest1601086776 12 5 41.67 823 2020-09-25 22:33:56
Guest1601057688 12 3 25 363 2020-09-25 14:21:30
Guest1601049731 12 7 58.33 521 2020-09-25 12:11:38
Guest1601042739 12 4 33.33 384 2020-09-25 10:12:48
Guest1601019416 12 11 91.67 342 2020-09-25 03:42:50
Guest1601004210 12 8 66.67 953 2020-09-24 23:39:45
Guest1601003863 12 10 83.33 314 2020-09-24 23:23:12
Guest1600985418 12 8 66.67 501 2020-09-24 18:19:50
Guest1600980836 12 11 91.67 200 2020-09-24 16:57:42
Guest1600936613 6 5 83.33 414 2020-09-24 08:03:32
Guest1600936613 12 6 50 2132 2020-09-24 07:55:54
Guest1600911763 12 1 8.33 103 2020-09-23 21:44:44
greyson 12 11 91.67 108 2020-09-23 16:38:37
Guest1600875383 12 5 41.67 1913 2020-09-23 13:46:24
Guest1600877454 12 10 83.33 371 2020-09-23 12:18:06
Guest1600868229 12 6 50 315 2020-09-23 09:45:13
Guest1600861865 12 1 8.33 304 2020-09-23 07:56:46
Guest1600787308 12 0 0 82 2020-09-22 17:42:02
Guest1600787308 12 11 91.67 199 2020-09-22 17:39:23
Guest1600787308 10 5 50 402 2020-09-22 17:35:38
Guest1600787308 10 3 30 257 2020-09-22 11:13:58
Guest1600728821 12 3 25 943 2020-09-21 19:10:24
Guest1600683641 12 11 91.67 155 2020-09-21 06:33:48
Guest1600683641 12 5 41.67 580 2020-09-21 06:30:53
Guest1600625626 3 3 100 38 2020-09-20 14:24:37
Guest1600625626 12 9 75 527 2020-09-20 14:23:03
Guest1600621970 12 7 58.33 478 2020-09-20 13:21:20
Guest1600619373 12 4 33.33 342 2020-09-20 12:35:29
Guest1600606698 12 12 100 197 2020-09-20 09:10:54
Guest1600606698 12 5 41.67 508 2020-09-20 09:07:09
Guest1600417847 12 5 41.67 479 2020-09-18 04:40:12
Guest1600406751 12 1 8.33 485 2020-09-18 01:34:49
Guest1600351438 12 2 16.67 468 2020-09-17 10:12:47
Guest1600324336 12 5 41.67 599 2020-09-17 02:43:00
Guest1600323681 12 8 66.67 266 2020-09-17 02:26:09
Guest1600278062 12 5 41.67 364 2020-09-16 13:48:01
epacheco 12 10 83.33 359 2020-09-16 12:02:36
epacheco 10 6 60 274 2020-09-16 11:47:29
Guest1600259050 12 4 33.33 832 2020-09-16 08:39:03
Guest1600250227 12 3 25 556 2020-09-16 06:07:17
Guest1600235412 12 5 41.67 517 2020-09-16 01:59:27
Guest1600227210 12 3 25 746 2020-09-15 23:46:36
Guest1600219515 12 3 25 388 2020-09-15 21:32:04
bossalinie 3 3 100 24 2020-09-15 21:11:24